createdAt,value
2018-08-09T00:00:15.116Z,18.30
2018-08-09T00:02:43.479Z,18.30
2018-08-09T00:05:11.918Z,18.30
2018-08-09T00:07:40.287Z,18.30
2018-08-09T00:10:08.664Z,18.20
2018-08-09T00:12:37.047Z,18.20
2018-08-09T00:15:05.806Z,18.20
2018-08-09T00:17:34.214Z,18.20
2018-08-09T00:20:02.586Z,18.20
2018-08-09T00:22:30.970Z,18.20
2018-08-09T00:24:59.342Z,18.20
2018-08-09T00:27:27.750Z,18.20
2018-08-09T00:29:56.170Z,18.20
2018-08-09T00:32:24.532Z,18.20
2018-08-09T00:34:52.883Z,18.20
2018-08-09T00:37:21.266Z,18.10
2018-08-09T00:39:49.614Z,18.10
2018-08-09T00:42:17.981Z,18.10
2018-08-09T00:44:46.436Z,18.10
2018-08-09T00:47:14.839Z,18.00
2018-08-09T00:49:43.216Z,18.00
2018-08-09T00:52:11.555Z,18.00
2018-08-09T00:54:39.956Z,18.00
2018-08-09T00:57:08.352Z,18.00
2018-08-09T00:59:36.687Z,17.90
2018-08-09T01:02:05.052Z,18.00
2018-08-09T01:04:33.392Z,17.90
2018-08-09T01:07:01.773Z,17.90
2018-08-09T01:09:30.169Z,17.90
2018-08-09T01:11:58.540Z,17.80
2018-08-09T01:14:26.918Z,17.80
2018-08-09T01:16:55.283Z,17.80
2018-08-09T01:19:23.687Z,17.70
2018-08-09T01:21:52.091Z,17.70
2018-08-09T01:24:20.475Z,17.70
2018-08-09T01:26:48.912Z,17.60
2018-08-09T01:29:17.282Z,17.60
2018-08-09T01:31:45.772Z,17.60
2018-08-09T01:34:14.213Z,17.40
2018-08-09T01:36:42.560Z,17.40
2018-08-09T01:39:12.963Z,17.30
2018-08-09T01:41:51.334Z,17.30
2018-08-09T01:44:19.713Z,17.30
2018-08-09T01:46:48.067Z,17.20
2018-08-09T01:49:16.565Z,17.20
2018-08-09T01:51:44.926Z,17.20
2018-08-09T01:54:13.311Z,17.10
2018-08-09T01:56:41.654Z,17.10
2018-08-09T01:59:10.020Z,17.10
2018-08-09T02:01:38.393Z,17.00
2018-08-09T02:04:07.546Z,17.00
2018-08-09T02:06:35.967Z,17.00
2018-08-09T02:09:08.879Z,16.90
2018-08-09T02:11:37.229Z,16.90
2018-08-09T02:14:05.838Z,16.90
2018-08-09T02:16:34.402Z,16.90
2018-08-09T02:19:02.965Z,16.90
2018-08-09T02:21:31.463Z,16.90
2018-08-09T02:23:59.880Z,16.90
2018-08-09T02:26:28.205Z,16.90
2018-08-09T02:28:56.604Z,16.90
2018-08-09T02:31:24.960Z,16.90
2018-08-09T02:33:53.314Z,16.90
2018-08-09T02:36:21.696Z,16.80
2018-08-09T02:38:50.152Z,16.80
2018-08-09T02:41:18.451Z,16.80
2018-08-09T02:43:46.896Z,16.70
2018-08-09T02:46:15.249Z,16.70
2018-08-09T02:48:43.610Z,16.60
2018-08-09T02:51:18.293Z,16.60
2018-08-09T02:53:46.637Z,16.50
2018-08-09T02:56:15.026Z,16.50
2018-08-09T02:58:43.408Z,16.40
2018-08-09T03:01:12.549Z,16.40
2018-08-09T03:03:40.916Z,16.40
2018-08-09T03:06:09.401Z,16.40
2018-08-09T03:08:37.834Z,16.40
2018-08-09T03:11:06.468Z,16.40
2018-08-09T03:13:35.193Z,16.40
2018-08-09T03:16:03.644Z,16.30
2018-08-09T03:18:32.079Z,16.30
2018-08-09T03:21:00.441Z,16.30
2018-08-09T03:23:28.792Z,16.20
2018-08-09T03:25:57.159Z,16.20
2018-08-09T03:28:25.531Z,16.20
2018-08-09T03:30:53.979Z,16.20
2018-08-09T03:33:22.361Z,16.10
2018-08-09T03:35:50.742Z,16.10
2018-08-09T03:38:19.244Z,16.00
2018-08-09T03:40:48.687Z,16.00
2018-08-09T03:43:17.063Z,15.90
2018-08-09T03:45:45.441Z,15.90
2018-08-09T03:48:13.842Z,15.90
2018-08-09T03:50:42.246Z,15.90
2018-08-09T03:53:10.702Z,15.90
2018-08-09T03:55:39.087Z,15.90
2018-08-09T03:58:07.622Z,15.90
2018-08-09T04:00:35.986Z,15.90
2018-08-09T04:03:04.387Z,15.90
2018-08-09T04:05:32.818Z,15.90
2018-08-09T04:08:01.206Z,15.80
2018-08-09T04:10:29.536Z,15.80
2018-08-09T04:12:57.926Z,15.80
2018-08-09T04:15:26.375Z,15.80
2018-08-09T04:17:54.757Z,15.80
2018-08-09T04:20:23.229Z,15.80
2018-08-09T04:22:51.613Z,15.80
2018-08-09T04:25:19.956Z,15.80
2018-08-09T04:27:48.306Z,15.80
2018-08-09T04:30:23.167Z,15.90
2018-08-09T04:32:51.546Z,15.90
2018-08-09T04:35:19.914Z,15.90
2018-08-09T04:37:48.421Z,16.00
2018-08-09T04:40:16.808Z,16.00
2018-08-09T04:42:45.160Z,16.00
2018-08-09T04:45:13.556Z,16.00
2018-08-09T04:47:41.906Z,16.00
2018-08-09T04:50:10.224Z,16.10
2018-08-09T04:52:38.582Z,16.10
2018-08-09T04:55:06.962Z,16.20
2018-08-09T04:57:35.259Z,16.30
2018-08-09T05:00:03.963Z,16.30
2018-08-09T05:02:32.331Z,16.40
2018-08-09T05:05:00.679Z,16.40
2018-08-09T05:07:29.028Z,16.50
2018-08-09T05:10:01.607Z,16.70
2018-08-09T05:12:29.969Z,16.80
2018-08-09T05:14:58.295Z,16.90
2018-08-09T05:17:26.747Z,17.10
2018-08-09T05:19:55.139Z,17.30
2018-08-09T05:22:23.559Z,17.40
2018-08-09T05:24:51.961Z,17.60
2018-08-09T05:27:20.354Z,17.80
2018-08-09T05:29:48.700Z,17.90
2018-08-09T05:32:17.162Z,18.10
2018-08-09T05:34:45.973Z,18.20
2018-08-09T05:37:14.671Z,18.30
2018-08-09T05:39:43.115Z,18.30
2018-08-09T05:42:11.490Z,18.30
2018-08-09T05:44:39.870Z,18.50
2018-08-09T05:47:08.233Z,18.60
2018-08-09T05:49:36.596Z,18.80
2018-08-09T05:52:05.353Z,19.10
2018-08-09T05:54:33.696Z,19.30
2018-08-09T05:57:02.089Z,19.50
2018-08-09T05:59:30.545Z,19.70
2018-08-09T06:01:58.935Z,19.90
2018-08-09T06:04:27.278Z,20.10
2018-08-09T06:06:55.663Z,20.30
2018-08-09T06:09:24.044Z,20.60
2018-08-09T06:11:52.467Z,20.80
2018-08-09T06:14:20.859Z,20.70
2018-08-09T06:16:49.294Z,20.90
2018-08-09T06:19:17.642Z,20.90
2018-08-09T06:21:46.085Z,20.90
2018-08-09T06:24:14.509Z,20.90
2018-08-09T06:26:43.075Z,21.00
2018-08-09T06:29:11.455Z,21.20
2018-08-09T06:31:40.055Z,21.30
2018-08-09T06:34:08.465Z,21.40
2018-08-09T06:36:36.824Z,21.40
2018-08-09T06:39:07.806Z,21.50
2018-08-09T06:41:36.787Z,21.60
2018-08-09T06:44:05.675Z,21.80
2018-08-09T06:46:34.334Z,22.00
2018-08-09T06:49:02.946Z,22.70
2018-08-09T06:51:31.946Z,23.10
2018-08-09T06:54:00.437Z,23.30
2018-08-09T06:56:29.038Z,23.70
2018-08-09T06:58:57.492Z,24.20
2018-08-09T07:01:26.326Z,24.50
2018-08-09T07:03:54.875Z,24.30
2018-08-09T07:06:23.470Z,24.20
2018-08-09T07:08:52.004Z,24.10
2018-08-09T07:11:20.404Z,23.90
2018-08-09T07:13:49.034Z,23.80
2018-08-09T07:16:17.472Z,23.70
2018-08-09T07:18:46.532Z,23.70
2018-08-09T07:21:14.950Z,23.60
2018-08-09T07:23:43.356Z,23.60
2018-08-09T07:26:11.956Z,23.50
2018-08-09T07:28:40.620Z,23.40
2018-08-09T07:31:09.029Z,23.40
2018-08-09T07:33:37.403Z,23.30
2018-08-09T07:36:05.807Z,23.30
2018-08-09T07:38:34.220Z,23.30
2018-08-09T07:41:02.900Z,23.30
2018-08-09T07:43:31.269Z,23.20
2018-08-09T07:45:59.614Z,23.20
2018-08-09T07:48:28.051Z,23.00
2018-08-09T07:50:56.440Z,22.80
2018-08-09T07:53:24.989Z,22.60
2018-08-09T07:55:53.321Z,22.30
2018-08-09T07:58:21.813Z,22.10
2018-08-09T08:00:50.166Z,21.90
2018-08-09T08:03:18.552Z,21.60
2018-08-09T08:05:47.110Z,21.30
2018-08-09T08:08:15.421Z,21.10
2018-08-09T08:10:43.834Z,21.00
2018-08-09T08:13:12.247Z,20.90
2018-08-09T08:15:40.627Z,20.70
2018-08-09T08:18:08.962Z,20.60
2018-08-09T08:20:37.412Z,20.60
2018-08-09T08:23:05.791Z,20.50
2018-08-09T08:25:34.192Z,20.40
2018-08-09T08:28:02.552Z,20.30
2018-08-09T08:30:37.584Z,20.40
2018-08-09T08:33:06.088Z,20.40
2018-08-09T08:35:34.460Z,20.50
2018-08-09T08:38:02.852Z,20.50
2018-08-09T08:40:31.296Z,20.70
2018-08-09T08:42:59.639Z,20.80
2018-08-09T08:45:28.119Z,20.90
2018-08-09T08:47:56.546Z,20.90
2018-08-09T08:50:24.917Z,21.10
2018-08-09T08:52:53.295Z,21.20
2018-08-09T08:55:21.762Z,21.20
2018-08-09T08:57:50.043Z,21.30
2018-08-09T09:00:18.388Z,21.30
2018-08-09T09:02:46.751Z,21.40
2018-08-09T09:05:19.554Z,21.30
2018-08-09T09:07:49.914Z,21.30
2018-08-09T09:10:21.724Z,21.30
2018-08-09T09:12:51.906Z,21.30
2018-08-09T09:15:20.352Z,21.40
2018-08-09T09:17:48.804Z,21.40
2018-08-09T09:20:17.741Z,21.50
2018-08-09T09:22:46.293Z,21.60
2018-08-09T09:25:14.745Z,21.70
2018-08-09T09:27:43.105Z,21.80
2018-08-09T09:30:16.930Z,22.00
2018-08-09T09:32:45.732Z,22.00
2018-08-09T09:35:14.402Z,22.00
2018-08-09T09:37:43.499Z,22.10
2018-08-09T09:40:12.030Z,22.20
2018-08-09T09:42:40.538Z,22.20
2018-08-09T09:45:09.988Z,22.20
2018-08-09T09:47:38.550Z,22.20
2018-08-09T09:50:08.644Z,22.20
2018-08-09T09:52:37.032Z,22.30
2018-08-09T09:55:05.774Z,22.30
2018-08-09T09:57:34.246Z,22.30
2018-08-09T10:00:02.898Z,22.40
2018-08-09T10:02:31.264Z,22.30
2018-08-09T10:05:00.778Z,22.40
2018-08-09T10:07:29.429Z,22.80
2018-08-09T10:09:58.069Z,23.20
2018-08-09T10:12:26.450Z,23.80
2018-08-09T10:14:54.799Z,24.50
2018-08-09T10:17:23.361Z,25.30
2018-08-09T10:19:51.820Z,25.70
2018-08-09T10:22:20.173Z,25.70
2018-08-09T10:24:48.524Z,25.50
2018-08-09T10:27:17.027Z,25.50
2018-08-09T10:29:45.469Z,25.10
2018-08-09T10:32:13.888Z,24.90
2018-08-09T10:34:42.395Z,25.00
2018-08-09T10:37:10.941Z,24.90
2018-08-09T10:39:39.488Z,25.10
2018-08-09T10:42:08.615Z,25.70
2018-08-09T10:44:37.029Z,26.40
2018-08-09T10:47:05.474Z,27.10
2018-08-09T10:49:33.870Z,27.70
2018-08-09T10:52:02.416Z,28.20
2018-08-09T10:54:31.213Z,28.60
2018-08-09T10:56:59.806Z,29.10
2018-08-09T10:59:28.268Z,29.50
2018-08-09T11:01:56.732Z,29.70
2018-08-09T11:04:25.091Z,29.50
2018-08-09T11:06:53.504Z,29.50
2018-08-09T11:09:21.896Z,29.70
2018-08-09T11:11:50.395Z,29.60
2018-08-09T11:14:18.978Z,29.60
2018-08-09T11:16:47.482Z,29.80
2018-08-09T11:19:15.951Z,29.90
2018-08-09T11:21:44.339Z,30.30
2018-08-09T11:24:12.928Z,30.40
2018-08-09T11:26:41.518Z,30.60
2018-08-09T11:29:09.931Z,30.70
2018-08-09T11:31:38.332Z,30.80
2018-08-09T11:34:06.728Z,31.20
2018-08-09T11:36:35.118Z,31.50
2018-08-09T11:39:04.972Z,31.20
2018-08-09T11:41:33.341Z,31.20
2018-08-09T11:44:01.721Z,31.50
2018-08-09T11:46:30.138Z,31.40
2018-08-09T11:48:58.815Z,31.10
2018-08-09T11:51:27.179Z,31.40
2018-08-09T11:53:55.561Z,31.60
2018-08-09T11:56:23.994Z,31.80
2018-08-09T11:58:52.450Z,32.00
2018-08-09T12:01:20.803Z,31.50
2018-08-09T12:03:49.267Z,31.60
2018-08-09T12:06:17.958Z,31.80
2018-08-09T12:08:46.611Z,32.00
2018-08-09T12:11:15.160Z,32.10
2018-08-09T12:13:43.654Z,32.10
2018-08-09T12:16:12.169Z,32.30
2018-08-09T12:18:40.702Z,32.60
2018-08-09T12:21:09.136Z,32.60
2018-08-09T12:23:37.556Z,32.70
2018-08-09T12:26:06.053Z,32.80
2018-08-09T12:28:34.502Z,32.60
2018-08-09T12:31:02.895Z,32.80
2018-08-09T12:33:31.319Z,33.00
2018-08-09T12:35:59.906Z,33.30
2018-08-09T12:38:28.239Z,33.00
2018-08-09T12:40:56.606Z,33.40
2018-08-09T12:43:25.108Z,33.50
2018-08-09T12:45:53.507Z,33.20
2018-08-09T12:48:21.987Z,33.00
2018-08-09T12:50:53.371Z,32.80
2018-08-09T12:53:21.809Z,32.70
2018-08-09T12:55:50.284Z,32.80
2018-08-09T12:58:18.705Z,32.60
2018-08-09T13:00:47.100Z,32.60
2018-08-09T13:03:15.527Z,32.90
2018-08-09T13:05:44.076Z,32.90
2018-08-09T13:08:12.567Z,33.20
2018-08-09T13:10:40.993Z,33.40
2018-08-09T13:13:09.497Z,33.20
2018-08-09T13:15:37.886Z,32.80
2018-08-09T13:18:07.092Z,33.10
2018-08-09T13:20:35.535Z,33.00
2018-08-09T13:23:04.014Z,33.30
2018-08-09T13:25:32.364Z,33.50
2018-08-09T13:28:00.803Z,33.50
2018-08-09T13:30:29.227Z,33.20
2018-08-09T13:32:57.627Z,32.90
2018-08-09T13:35:26.148Z,32.70
2018-08-09T13:37:54.735Z,32.50
2018-08-09T13:40:24.169Z,32.50
2018-08-09T13:42:52.670Z,32.40
2018-08-09T13:45:21.215Z,32.20
2018-08-09T13:47:49.757Z,32.20
2018-08-09T13:50:18.266Z,32.20
2018-08-09T13:52:46.706Z,32.10
2018-08-09T13:55:15.633Z,32.00
2018-08-09T13:57:44.334Z,32.10
2018-08-09T14:00:13.582Z,32.00
2018-08-09T14:02:43.559Z,32.00
2018-08-09T14:05:11.989Z,32.10
2018-08-09T14:07:41.891Z,32.00
2018-08-09T14:10:11.165Z,31.90
2018-08-09T14:12:40.184Z,31.90
2018-08-09T14:15:09.392Z,31.80
2018-08-09T14:17:38.507Z,31.90
2018-08-09T14:20:08.452Z,31.90
2018-08-09T14:22:36.903Z,31.90
2018-08-09T14:25:05.898Z,32.00
2018-08-09T14:27:34.424Z,31.90
2018-08-09T14:30:02.906Z,31.80
2018-08-09T14:32:31.416Z,31.80
2018-08-09T14:34:59.876Z,31.70
2018-08-09T14:37:28.282Z,31.70
2018-08-09T14:39:56.907Z,31.60
2018-08-09T14:42:25.331Z,31.60
2018-08-09T14:44:53.787Z,31.60
2018-08-09T14:47:22.372Z,31.60
2018-08-09T14:49:50.807Z,31.50
2018-08-09T14:52:19.241Z,31.50
2018-08-09T14:54:47.651Z,31.50
2018-08-09T14:57:16.167Z,31.50
2018-08-09T14:59:44.617Z,31.10
2018-08-09T15:02:13.019Z,28.90
2018-08-09T15:04:41.392Z,26.10
2018-08-09T15:07:09.801Z,23.90
2018-08-09T15:09:38.262Z,22.60
2018-08-09T15:12:06.687Z,21.90
2018-08-09T15:14:35.076Z,21.50
2018-08-09T15:17:03.499Z,21.30
2018-08-09T15:19:31.954Z,21.10
2018-08-09T15:22:00.323Z,21.00
2018-08-09T15:24:28.758Z,21.00
2018-08-09T15:26:57.148Z,21.00
2018-08-09T15:29:25.552Z,21.00
2018-08-09T15:31:54.005Z,20.90
2018-08-09T15:34:22.391Z,20.80
2018-08-09T15:36:50.791Z,20.80
2018-08-09T15:39:19.181Z,20.70
2018-08-09T15:41:47.626Z,20.70
2018-08-09T15:44:16.379Z,20.70
2018-08-09T15:46:45.093Z,20.70
2018-08-09T15:49:13.496Z,20.70
2018-08-09T15:51:42.023Z,20.70
2018-08-09T15:54:10.430Z,20.70
2018-08-09T15:56:38.793Z,20.80
2018-08-09T15:59:07.157Z,20.80
2018-08-09T16:01:35.614Z,20.80
2018-08-09T16:04:04.037Z,20.80
2018-08-09T16:06:32.458Z,20.80
2018-08-09T16:09:00.851Z,20.70
2018-08-09T16:11:29.220Z,20.70
2018-08-09T16:13:57.646Z,20.70
2018-08-09T16:16:26.220Z,20.70
2018-08-09T16:18:54.619Z,20.70
2018-08-09T16:21:22.996Z,20.80
2018-08-09T16:23:51.441Z,20.90
2018-08-09T16:26:19.814Z,21.00
2018-08-09T16:28:48.667Z,21.00
2018-08-09T16:31:17.159Z,21.10
2018-08-09T16:33:45.637Z,21.30
2018-08-09T16:36:14.283Z,21.30
2018-08-09T16:38:42.696Z,21.40
2018-08-09T16:41:11.188Z,21.50
2018-08-09T16:43:39.596Z,21.60
2018-08-09T16:46:08.223Z,21.70
2018-08-09T16:48:36.786Z,21.80
2018-08-09T16:51:05.651Z,21.90
2018-08-09T16:53:34.283Z,22.00
2018-08-09T16:56:02.876Z,22.10
2018-08-09T16:58:31.362Z,22.10
2018-08-09T17:00:59.854Z,22.20
2018-08-09T17:03:28.446Z,22.20
2018-08-09T17:05:56.852Z,22.20
2018-08-09T17:08:25.241Z,22.20
2018-08-09T17:10:53.646Z,22.20
2018-08-09T17:13:22.098Z,22.20
2018-08-09T17:15:50.595Z,22.20
2018-08-09T17:18:19.200Z,22.20
2018-08-09T17:20:47.831Z,22.20
2018-08-09T17:23:16.265Z,22.10
2018-08-09T17:25:44.635Z,22.10
2018-08-09T17:28:13.087Z,22.10
2018-08-09T17:30:41.691Z,22.10
2018-08-09T17:33:11.307Z,22.20
2018-08-09T17:35:43.497Z,22.20
2018-08-09T17:38:11.947Z,22.10
2018-08-09T17:40:40.604Z,22.20
2018-08-09T17:43:09.240Z,22.20
2018-08-09T17:45:37.735Z,22.20
2018-08-09T17:48:06.231Z,22.20
2018-08-09T17:50:38.799Z,22.20
2018-08-09T17:53:08.572Z,22.20
2018-08-09T17:55:37.061Z,22.20
2018-08-09T17:58:05.661Z,22.20
2018-08-09T18:00:35.116Z,22.20
2018-08-09T18:03:03.630Z,22.20
2018-08-09T18:05:32.274Z,22.20
2018-08-09T18:08:00.751Z,22.20
2018-08-09T18:10:36.675Z,22.30
2018-08-09T18:13:05.391Z,22.30
2018-08-09T18:15:34.129Z,22.30
2018-08-09T18:18:03.542Z,22.30
2018-08-09T18:20:33.770Z,22.30
2018-08-09T18:23:02.499Z,22.30
2018-08-09T18:25:31.039Z,22.30
2018-08-09T18:27:59.492Z,22.30
2018-08-09T18:30:28.966Z,22.30
2018-08-09T18:33:00.926Z,22.30
2018-08-09T18:35:29.737Z,22.30
2018-08-09T18:37:58.559Z,22.30
2018-08-09T18:40:28.244Z,22.30
2018-08-09T18:42:56.769Z,22.30
2018-08-09T18:45:25.520Z,22.30
2018-08-09T18:47:55.665Z,22.30
2018-08-09T18:50:27.420Z,22.30
2018-08-09T18:52:56.369Z,22.30
2018-08-09T18:55:26.340Z,22.20
2018-08-09T18:57:55.063Z,22.20
2018-08-09T19:00:25.544Z,22.20
2018-08-09T19:02:54.179Z,22.10
2018-08-09T19:05:23.070Z,22.10
2018-08-09T19:07:52.568Z,22.10
2018-08-09T19:10:23.797Z,22.10
2018-08-09T19:12:52.775Z,22.10
2018-08-09T19:15:21.788Z,22.00
2018-08-09T19:17:50.458Z,22.00
2018-08-09T19:20:26.096Z,22.00
2018-08-09T19:22:56.868Z,22.00
2018-08-09T19:25:27.373Z,22.00
2018-08-09T19:27:58.248Z,22.00
2018-08-09T19:30:28.161Z,22.00
2018-08-09T19:32:56.708Z,22.00
2018-08-09T19:35:25.391Z,22.00
2018-08-09T19:37:53.910Z,22.10
2018-08-09T19:40:30.040Z,22.10
2018-08-09T19:42:58.691Z,22.20
2018-08-09T19:45:27.563Z,22.20
2018-08-09T19:47:56.584Z,22.20
2018-08-09T19:50:25.565Z,22.20
2018-08-09T19:52:54.168Z,22.20
2018-08-09T19:55:24.387Z,22.10
2018-08-09T19:57:53.238Z,22.10
2018-08-09T20:00:24.935Z,22.10
2018-08-09T20:02:54.572Z,22.00
2018-08-09T20:05:23.716Z,22.00
2018-08-09T20:07:52.359Z,22.00
2018-08-09T20:10:20.862Z,22.00
2018-08-09T20:12:49.575Z,21.90
2018-08-09T20:15:20.156Z,21.90
2018-08-09T20:17:48.716Z,21.90
2018-08-09T20:20:18.517Z,22.00
2018-08-09T20:22:47.005Z,22.00
2018-08-09T20:25:15.856Z,22.00
2018-08-09T20:27:44.960Z,21.90
2018-08-09T20:30:15.241Z,21.90
2018-08-09T20:32:44.205Z,21.80
2018-08-09T20:35:14.252Z,21.70
2018-08-09T20:37:43.760Z,21.60
2018-08-09T20:40:15.447Z,21.60
2018-08-09T20:42:44.600Z,21.50
2018-08-09T20:45:14.640Z,21.40
2018-08-09T20:47:43.340Z,21.30
2018-08-09T20:50:14.691Z,21.30
2018-08-09T20:52:44.109Z,21.20
2018-08-09T20:55:13.084Z,21.20
2018-08-09T20:57:42.772Z,21.10
2018-08-09T21:00:15.396Z,21.00
2018-08-09T21:02:46.514Z,20.90
2018-08-09T21:05:17.825Z,20.80
2018-08-09T21:07:47.192Z,20.70
2018-08-09T21:10:15.719Z,20.70
2018-08-09T21:12:44.331Z,20.60
2018-08-09T21:15:13.137Z,20.60
2018-08-09T21:17:41.874Z,20.50
2018-08-09T21:20:10.605Z,20.50
2018-08-09T21:22:39.187Z,20.40
2018-08-09T21:25:08.365Z,20.40
2018-08-09T21:27:36.857Z,20.40
2018-08-09T21:30:06.067Z,20.30
2018-08-09T21:32:34.488Z,20.30
2018-08-09T21:35:03.391Z,20.20
2018-08-09T21:37:33.927Z,20.20
2018-08-09T21:40:34.889Z,20.20
2018-08-09T21:43:03.760Z,20.10
2018-08-09T21:45:32.782Z,20.20
2018-08-09T21:48:01.473Z,20.20
2018-08-09T21:50:30.132Z,20.20
2018-08-09T21:52:59.250Z,20.10
2018-08-09T21:55:28.000Z,20.10
2018-08-09T21:57:56.396Z,20.10
2018-08-09T22:01:03.282Z,20.10
2018-08-09T22:03:34.020Z,20.00
2018-08-09T22:06:07.916Z,20.00
2018-08-09T22:08:42.142Z,20.00
2018-08-09T22:11:18.795Z,19.90
2018-08-09T22:13:52.888Z,20.00
2018-08-09T22:16:26.646Z,20.00
2018-08-09T22:19:02.005Z,20.00
2018-08-09T22:21:36.381Z,19.90
2018-08-09T22:24:05.908Z,20.00
2018-08-09T22:26:35.740Z,20.00
2018-08-09T22:29:05.102Z,19.90
2018-08-09T22:31:34.500Z,19.90
2018-08-09T22:34:03.980Z,19.90
2018-08-09T22:36:34.236Z,19.90
2018-08-09T22:39:04.791Z,19.90
2018-08-09T22:41:33.670Z,19.80
2018-08-09T22:44:02.305Z,19.80
2018-08-09T22:46:30.694Z,19.80
2018-08-09T22:48:59.168Z,19.70
2018-08-09T22:51:27.606Z,19.70
2018-08-09T22:53:56.035Z,19.70
2018-08-09T22:56:24.433Z,19.60
2018-08-09T22:58:52.824Z,19.60
2018-08-09T23:01:21.274Z,19.60
2018-08-09T23:03:49.722Z,19.50
2018-08-09T23:06:18.160Z,19.50
2018-08-09T23:08:46.600Z,19.40
2018-08-09T23:11:15.015Z,19.40
2018-08-09T23:13:43.456Z,19.40
2018-08-09T23:16:11.881Z,19.30
2018-08-09T23:18:40.302Z,19.30
2018-08-09T23:21:08.828Z,19.20
2018-08-09T23:23:37.426Z,19.20
2018-08-09T23:26:06.044Z,19.20
2018-08-09T23:28:34.724Z,19.10
2018-08-09T23:31:03.850Z,19.10
2018-08-09T23:33:32.248Z,19.00
2018-08-09T23:36:00.712Z,19.00
2018-08-09T23:38:29.139Z,18.90
2018-08-09T23:40:57.534Z,18.90
2018-08-09T23:43:26.098Z,18.80
2018-08-09T23:45:54.599Z,18.80
2018-08-09T23:48:22.976Z,18.80
2018-08-09T23:50:51.381Z,18.80
2018-08-09T23:53:19.781Z,18.70
2018-08-09T23:55:48.188Z,18.70
2018-08-09T23:58:16.620Z,18.60
